Kaprifol — 5BXX2 — position and weather

sailwx.info

Track history (hours):
 
Tides and Currents Weather Stations Pressure Air Temp Water Temp Dewpoint Dewpoint Depression Visibility Wind Speed Wind Dir Waves Ship Positions

Kaprifol

Last reported at 2015-Mar-04 00:30 UTC. Time now 2015-Mar-06 16:09 UTC.
Position N 59°16' E 005°00'.

Length 90 m; draft 4.7 m.

Type: Tanker. MMSI: 210445000.

Date/timePositionNaut miles runAvg speedWind from/ knotsBaromVisibWave heightAir tempDewpointWater temp
2015-Mar-04 00:30N 59°16' E 005°00'4 3.9
2015-Mar-03 23:31N 59°13' E 005°02'4 4.5
2015-Mar-03 22:31N 59°09' E 005°07'5 4.7
2015-Mar-03 21:33N 59°07' E 005°15'9 9.4
2015-Mar-03 20:33N 59°05' E 005°33'9 9.0
2015-Mar-03 19:33N 59°01' E 005°48'3 2.6
2015-Mar-03 18:33N 58°58' E 005°45'0 0.0
2015-Mar-03 17:33N 58°58' E 005°45'0 0.0
2015-Mar-03 16:33N 58°58' E 005°45'0 0.0
2015-Mar-03 15:33N 58°58' E 005°45'0 0.0
2015-Mar-03 14:32N 58°58' E 005°45'0 0.0
2015-Mar-03 13:32N 58°58' E 005°45'0 0.0
2015-Mar-03 12:32N 58°58' E 005°45'3 3.3
2015-Mar-03 11:33N 59°01' E 005°48'1010.3
2015-Mar-03 10:33N 59°06' E 005°30'1110.6
2015-Mar-03 09:33N 59°07' E 005°09'  
2015-Feb-28 21:33N 59°12' E 005°02'9 9.4
2015-Feb-28 20:34N 59°06' E 005°16'9 8.7
2015-Feb-28 19:34N 59°05' E 005°33'8 8.4
2015-Feb-28 18:34N 59°02' E 005°48'3 3.4
2015-Feb-28 17:33N 58°58' E 005°45'0 0.0
2015-Feb-28 16:33N 58°58' E 005°45'0 0.0
2015-Feb-28 15:33N 58°58' E 005°45'0 0.0
2015-Feb-28 14:33N 58°58' E 005°45'0 0.0
2015-Feb-28 13:33N 58°58' E 005°45'0 0.0
2015-Feb-28 12:33N 58°58' E 005°45'0 0.0
2015-Feb-28 11:33N 58°58' E 005°45'1 0.8
2015-Feb-28 10:34N 58°59' E 005°47'0 0.3
2015-Feb-28 09:34N 58°59' E 005°47'3 3.2
2015-Feb-28 08:33N 59°02' E 005°45'4 3.8
2015-Feb-28 07:33N 59°02' E 005°38'6 5.9
2015-Feb-28 06:34N 58°56' E 005°33'8 7.9
2015-Feb-28 05:33N 58°49' E 005°26'23 7.1
2015-Feb-28 02:19N 58°26' E 005°22'14 7.8
2015-Feb-28 00:33N 58°16' E 005°38'8 8.0
2015-Feb-27 23:33N 58°10' E 005°50'8 8.3
2015-Feb-27 22:32N 58°05' E 006°02'160 8.7
2015-Feb-27 04:16N 57°42' E 010°59'811.2
2015-Feb-27 03:34N 57°37' E 011°11'1111.2
2015-Feb-27 02:33N 57°29' E 011°25'1111.0
2015-Feb-27 01:34N 57°19' E 011°32'2411.7
2015-Feb-26 23:33N 56°56' E 011°47'1211.9
2015-Feb-26 22:34N 56°45' E 011°53'129 3.6
2015-Feb-25 10:21N 54°39' E 011°03'911.1
2015-Feb-25 09:33N 54°35' E 011°17'1111.0
2015-Feb-25 08:33N 54°30' E 011°34'1110.7
2015-Feb-25 07:33N 54°25' E 011°50'1110.7
2015-Feb-25 06:33N 54°17' E 012°03'8 7.8
2015-Feb-25 05:29N 54°09' E 012°07'0 0.0
2015-Feb-25 04:33N 54°09' E 012°07'0 0.0
2015-Feb-25 03:33N 54°09' E 012°07'0 0.0
2015-Feb-25 02:33N 54°09' E 012°07'0 0.0
2015-Feb-25 01:33N 54°09' E 012°07'0 0.0
2015-Feb-25 00:24N 54°09' E 012°07'0 0.0
2015-Feb-24 23:33N 54°09' E 012°07'0 0.0
2015-Feb-24 22:24N 54°09' E 012°07'0 0.0
2015-Feb-24 21:30N 54°09' E 012°07'0 0.0
2015-Feb-24 20:33N 54°09' E 012°07'0 0.0
2015-Feb-24 19:15N 54°09' E 012°07'0 0.0
2015-Feb-24 18:27N 54°09' E 012°07'0 0.0
2015-Feb-24 17:12N 54°09' E 012°07'0 0.0
2015-Feb-24 16:24N 54°09' E 012°07'0 0.0
2015-Feb-24 15:21N 54°09' E 012°07'0 0.0
2015-Feb-24 14:27N 54°09' E 012°07'2 1.7
2015-Feb-24 13:33N 54°10' E 012°06'9 8.7
2015-Feb-24 12:33N 54°18' E 011°58'1110.7
2015-Feb-24 11:33N 54°24' E 011°43'1110.7
2015-Feb-24 10:33N 54°30' E 011°27'1010.2
2015-Feb-24 09:33N 54°35' E 011°12'2311.0
2015-Feb-24 07:27N 54°33' E 010°32'1011.0
2015-Feb-24 06:33N 54°28' E 010°17'8 8.2
2015-Feb-24 05:33N 54°22' E 010°09'3 2.6
2015-Feb-24 04:33N 54°22' E 010°04'7 7.0
2015-Feb-24 03:33N 54°22' E 009°52'7 7.3
2015-Feb-24 02:32N 54°18' E 009°41'16 8.2
2015-Feb-24 00:32N 54°07' E 009°20'4 4.5
2015-Feb-23 23:33N 54°03' E 009°18'1 1.5
2015-Feb-23 22:33N 54°01' E 009°18'9 8.6
2015-Feb-23 21:33N 53°54' E 009°10'2 2.5
2015-Feb-23 20:33N 53°53' E 009°06'8 7.5
2015-Feb-23 19:33N 53°50' E 008°54'7 7.0
2015-Feb-23 18:33N 53°52' E 008°43'1 0.7
2015-Feb-23 17:34N 53°51' E 008°43'0 0.0
2015-Feb-23 16:33N 53°51' E 008°43'0 0.0
2015-Feb-23 15:33N 53°51' E 008°43'0 0.0
2015-Feb-23 14:33N 53°51' E 008°43'0 0.0
2015-Feb-23 13:33N 53°51' E 008°43'0 0.0
2015-Feb-23 12:33N 53°51' E 008°43'0 0.0
2015-Feb-23 11:33N 53°51' E 008°43'0 0.0
2015-Feb-23 10:33N 53°51' E 008°43'0 0.0
2015-Feb-23 09:33N 53°51' E 008°43'0 0.0
2015-Feb-23 08:33N 53°51' E 008°43'0 0.0
2015-Feb-23 07:33N 53°51' E 008°43'0 0.0
2015-Feb-23 06:33N 53°51' E 008°43'0 0.0
2015-Feb-23 05:33N 53°51' E 008°43'0 0.0
2015-Feb-23 04:33N 53°51' E 008°43'0 0.0
2015-Feb-23 03:33N 53°51' E 008°43'0 0.0
2015-Feb-23 02:33N 53°51' E 008°43'0 0.0
2015-Feb-23 01:33N 53°51' E 008°43'0 0.0
2015-Feb-23 00:33N 53°51' E 008°43'0 0.4
2015-Feb-22 23:33N 53°52' E 008°43'1 1.1
2015-Feb-22 22:33N 53°53' E 008°44'0 0.0
2015-Feb-22 21:33N 53°53' E 008°44'0 0.0
2015-Feb-22 20:33N 53°53' E 008°44'0 0.0
2015-Feb-22 19:33N 53°53' E 008°44'2 2.4
2015-Feb-22 18:33N 53°54' E 008°41'7 6.8
2015-Feb-22 17:33N 53°58' E 008°32'9 8.5
2015-Feb-22 16:33N 53°59' E 008°17'10 9.7
2015-Feb-22 15:33N 54°01' E 008°01'1110.5
2015-Feb-22 14:33N 54°06' E 007°45'1010.1
2015-Feb-22 13:33N 54°12' E 007°32'1010.2
2015-Feb-22 12:33N 54°22' E 007°30'1110.6
2015-Feb-22 11:33N 54°33' E 007°30'2311.0
2015-Feb-22 09:26N 54°56' E 007°28'1011.0
2015-Feb-22 08:33N 55°06' E 007°26'1110.5
2015-Feb-22 07:33N 55°16' E 007°25'1010.1
2015-Feb-22 06:33N 55°27' E 007°24'  
Track history (hours):
 
Tides and Currents Weather Stations Pressure Air Temp Water Temp Dewpoint Dewpoint Depression Visibility Wind Speed Wind Dir Waves Ship Positions

Kaprifol

Last reported at 2015-Mar-04 00:30 UTC. Time now 2015-Mar-06 16:09 UTC.
Position N 59°16' E 005°00'.

Length 90 m; draft 4.7 m.

Type: Tanker. MMSI: 210445000.

Date/timePositionNaut miles runAvg speedWind from/ knotsBaromVisibWave heightAir tempDewpointWater temp
2015-Mar-04 00:30N 59°16' E 005°00'4 3.9
2015-Mar-03 23:31N 59°13' E 005°02'4 4.5
2015-Mar-03 22:31N 59°09' E 005°07'5 4.7
2015-Mar-03 21:33N 59°07' E 005°15'9 9.4
2015-Mar-03 20:33N 59°05' E 005°33'9 9.0
2015-Mar-03 19:33N 59°01' E 005°48'3 2.6
2015-Mar-03 18:33N 58°58' E 005°45'0 0.0
2015-Mar-03 17:33N 58°58' E 005°45'0 0.0
2015-Mar-03 16:33N 58°58' E 005°45'0 0.0
2015-Mar-03 15:33N 58°58' E 005°45'0 0.0
2015-Mar-03 14:32N 58°58' E 005°45'0 0.0
2015-Mar-03 13:32N 58°58' E 005°45'0 0.0
2015-Mar-03 12:32N 58°58' E 005°45'3 3.3
2015-Mar-03 11:33N 59°01' E 005°48'1010.3
2015-Mar-03 10:33N 59°06' E 005°30'1110.6
2015-Mar-03 09:33N 59°07' E 005°09'  
2015-Feb-28 21:33N 59°12' E 005°02'9 9.4
2015-Feb-28 20:34N 59°06' E 005°16'9 8.7
2015-Feb-28 19:34N 59°05' E 005°33'8 8.4
2015-Feb-28 18:34N 59°02' E 005°48'3 3.4
2015-Feb-28 17:33N 58°58' E 005°45'0 0.0
2015-Feb-28 16:33N 58°58' E 005°45'0 0.0
2015-Feb-28 15:33N 58°58' E 005°45'0 0.0
2015-Feb-28 14:33N 58°58' E 005°45'0 0.0
2015-Feb-28 13:33N 58°58' E 005°45'0 0.0
2015-Feb-28 12:33N 58°58' E 005°45'0 0.0
2015-Feb-28 11:33N 58°58' E 005°45'1 0.8
2015-Feb-28 10:34N 58°59' E 005°47'0 0.3
2015-Feb-28 09:34N 58°59' E 005°47'3 3.2
2015-Feb-28 08:33N 59°02' E 005°45'4 3.8
2015-Feb-28 07:33N 59°02' E 005°38'6 5.9
2015-Feb-28 06:34N 58°56' E 005°33'8 7.9
2015-Feb-28 05:33N 58°49' E 005°26'23 7.1
2015-Feb-28 02:19N 58°26' E 005°22'14 7.8
2015-Feb-28 00:33N 58°16' E 005°38'8 8.0
2015-Feb-27 23:33N 58°10' E 005°50'8 8.3
2015-Feb-27 22:32N 58°05' E 006°02'160 8.7
2015-Feb-27 04:16N 57°42' E 010°59'811.2
2015-Feb-27 03:34N 57°37' E 011°11'1111.2
2015-Feb-27 02:33N 57°29' E 011°25'1111.0
2015-Feb-27 01:34N 57°19' E 011°32'2411.7
2015-Feb-26 23:33N 56°56' E 011°47'1211.9
2015-Feb-26 22:34N 56°45' E 011°53'129 3.6
2015-Feb-25 10:21N 54°39' E 011°03'911.1
2015-Feb-25 09:33N 54°35' E 011°17'1111.0
2015-Feb-25 08:33N 54°30' E 011°34'1110.7
2015-Feb-25 07:33N 54°25' E 011°50'1110.7
2015-Feb-25 06:33N 54°17' E 012°03'8 7.8
2015-Feb-25 05:29N 54°09' E 012°07'0 0.0
2015-Feb-25 04:33N 54°09' E 012°07'0 0.0
2015-Feb-25 03:33N 54°09' E 012°07'0 0.0
2015-Feb-25 02:33N 54°09' E 012°07'0 0.0
2015-Feb-25 01:33N 54°09' E 012°07'0 0.0
2015-Feb-25 00:24N 54°09' E 012°07'0 0.0
2015-Feb-24 23:33N 54°09' E 012°07'0 0.0
2015-Feb-24 22:24N 54°09' E 012°07'0 0.0
2015-Feb-24 21:30N 54°09' E 012°07'0 0.0
2015-Feb-24 20:33N 54°09' E 012°07'0 0.0
2015-Feb-24 19:15N 54°09' E 012°07'0 0.0
2015-Feb-24 18:27N 54°09' E 012°07'0 0.0
2015-Feb-24 17:12N 54°09' E 012°07'0 0.0
2015-Feb-24 16:24N 54°09' E 012°07'0 0.0
2015-Feb-24 15:21N 54°09' E 012°07'0 0.0
2015-Feb-24 14:27N 54°09' E 012°07'2 1.7
2015-Feb-24 13:33N 54°10' E 012°06'9 8.7
2015-Feb-24 12:33N 54°18' E 011°58'1110.7
2015-Feb-24 11:33N 54°24' E 011°43'1110.7
2015-Feb-24 10:33N 54°30' E 011°27'1010.2
2015-Feb-24 09:33N 54°35' E 011°12'2311.0
2015-Feb-24 07:27N 54°33' E 010°32'1011.0
2015-Feb-24 06:33N 54°28' E 010°17'8 8.2
2015-Feb-24 05:33N 54°22' E 010°09'3 2.6
2015-Feb-24 04:33N 54°22' E 010°04'7 7.0
2015-Feb-24 03:33N 54°22' E 009°52'7 7.3
2015-Feb-24 02:32N 54°18' E 009°41'16 8.2
2015-Feb-24 00:32N 54°07' E 009°20'4 4.5
2015-Feb-23 23:33N 54°03' E 009°18'1 1.5
2015-Feb-23 22:33N 54°01' E 009°18'9 8.6
2015-Feb-23 21:33N 53°54' E 009°10'2 2.5
2015-Feb-23 20:33N 53°53' E 009°06'8 7.5
2015-Feb-23 19:33N 53°50' E 008°54'7 7.0
2015-Feb-23 18:33N 53°52' E 008°43'1 0.7
2015-Feb-23 17:34N 53°51' E 008°43'0 0.0
2015-Feb-23 16:33N 53°51' E 008°43'0 0.0
2015-Feb-23 15:33N 53°51' E 008°43'0 0.0
2015-Feb-23 14:33N 53°51' E 008°43'0 0.0
2015-Feb-23 13:33N 53°51' E 008°43'0 0.0
2015-Feb-23 12:33N 53°51' E 008°43'0 0.0
2015-Feb-23 11:33N 53°51' E 008°43'0 0.0
2015-Feb-23 10:33N 53°51' E 008°43'0 0.0
2015-Feb-23 09:33N 53°51' E 008°43'0 0.0
2015-Feb-23 08:33N 53°51' E 008°43'0 0.0
2015-Feb-23 07:33N 53°51' E 008°43'0 0.0
2015-Feb-23 06:33N 53°51' E 008°43'0 0.0
2015-Feb-23 05:33N 53°51' E 008°43'0 0.0
2015-Feb-23 04:33N 53°51' E 008°43'0 0.0
2015-Feb-23 03:33N 53°51' E 008°43'0 0.0
2015-Feb-23 02:33N 53°51' E 008°43'0 0.0
2015-Feb-23 01:33N 53°51' E 008°43'0 0.0
2015-Feb-23 00:33N 53°51' E 008°43'0 0.4
2015-Feb-22 23:33N 53°52' E 008°43'1 1.1
2015-Feb-22 22:33N 53°53' E 008°44'0 0.0
2015-Feb-22 21:33N 53°53' E 008°44'0 0.0
2015-Feb-22 20:33N 53°53' E 008°44'0 0.0
2015-Feb-22 19:33N 53°53' E 008°44'2 2.4
2015-Feb-22 18:33N 53°54' E 008°41'7 6.8
2015-Feb-22 17:33N 53°58' E 008°32'9 8.5
2015-Feb-22 16:33N 53°59' E 008°17'10 9.7
2015-Feb-22 15:33N 54°01' E 008°01'1110.5
2015-Feb-22 14:33N 54°06' E 007°45'1010.1
2015-Feb-22 13:33N 54°12' E 007°32'1010.2
2015-Feb-22 12:33N 54°22' E 007°30'1110.6
2015-Feb-22 11:33N 54°33' E 007°30'2311.0
2015-Feb-22 09:26N 54°56' E 007°28'1011.0
2015-Feb-22 08:33N 55°06' E 007°26'1110.5
2015-Feb-22 07:33N 55°16' E 007°25'1010.1
2015-Feb-22 06:33N 55°27' E 007°24'  

Dump ship's entire track history